sensor_id;sensor_type;location;lat;lon;timestamp;P1;durP1;ratioP1;P2;durP2;ratioP2
11663;SDS011;72375;59.302;18.204;2024-02-14T00:00:34;5.37;;;4.00;;
11663;SDS011;72375;59.302;18.204;2024-02-14T00:03:20;5.27;;;4.30;;
11663;SDS011;72375;59.302;18.204;2024-02-14T00:06:07;5.73;;;4.33;;
11663;SDS011;72375;59.302;18.204;2024-02-14T00:08:53;6.63;;;4.17;;
11663;SDS011;72375;59.302;18.204;2024-02-14T00:11:39;5.67;;;4.10;;
11663;SDS011;72375;59.302;18.204;2024-02-14T00:14:25;5.07;;;3.70;;
11663;SDS011;72375;59.302;18.204;2024-02-14T00:17:10;6.73;;;4.07;;
11663;SDS011;72375;59.302;18.204;2024-02-14T00:19:56;5.10;;;3.93;;
11663;SDS011;72375;59.302;18.204;2024-02-14T00:22:42;5.00;;;3.73;;
11663;SDS011;72375;59.302;18.204;2024-02-14T00:25:29;6.17;;;4.20;;
11663;SDS011;72375;59.302;18.204;2024-02-14T00:28:15;6.33;;;4.27;;
11663;SDS011;72375;59.302;18.204;2024-02-14T00:31:00;7.03;;;3.47;;
11663;SDS011;72375;59.302;18.204;2024-02-14T00:33:46;5.87;;;3.93;;
11663;SDS011;72375;59.302;18.204;2024-02-14T00:36:32;6.07;;;4.17;;
11663;SDS011;72375;59.302;18.204;2024-02-14T00:39:17;5.40;;;3.80;;
11663;SDS011;72375;59.302;18.204;2024-02-14T00:42:04;5.27;;;3.77;;
11663;SDS011;72375;59.302;18.204;2024-02-14T00:44:50;6.63;;;4.00;;
11663;SDS011;72375;59.302;18.204;2024-02-14T00:47:36;7.27;;;4.17;;
11663;SDS011;72375;59.302;18.204;2024-02-14T00:50:22;5.93;;;4.03;;
11663;SDS011;72375;59.302;18.204;2024-02-14T00:53:07;7.90;;;4.97;;
11663;SDS011;72375;59.302;18.204;2024-02-14T00:55:53;6.80;;;4.33;;
11663;SDS011;72375;59.302;18.204;2024-02-14T00:58:40;6.30;;;4.37;;
11663;SDS011;72375;59.302;18.204;2024-02-14T01:01:26;5.97;;;4.37;;
11663;SDS011;72375;59.302;18.204;2024-02-14T01:04:11;6.40;;;4.93;;
11663;SDS011;72375;59.302;18.204;2024-02-14T01:06:57;6.40;;;4.67;;
11663;SDS011;72375;59.302;18.204;2024-02-14T01:09:43;6.50;;;4.80;;
11663;SDS011;72375;59.302;18.204;2024-02-14T01:12:28;6.60;;;4.07;;
11663;SDS011;72375;59.302;18.204;2024-02-14T01:15:16;6.90;;;4.53;;
11663;SDS011;72375;59.302;18.204;2024-02-14T01:18:02;7.33;;;4.67;;
11663;SDS011;72375;59.302;18.204;2024-02-14T01:20:47;5.40;;;4.60;;
11663;SDS011;72375;59.302;18.204;2024-02-14T01:23:33;6.30;;;4.77;;
11663;SDS011;72375;59.302;18.204;2024-02-14T01:26:19;6.83;;;4.60;;
11663;SDS011;72375;59.302;18.204;2024-02-14T01:29:05;5.77;;;4.30;;
11663;SDS011;72375;59.302;18.204;2024-02-14T01:31:52;5.13;;;4.27;;
11663;SDS011;72375;59.302;18.204;2024-02-14T01:34:38;5.70;;;4.43;;
11663;SDS011;72375;59.302;18.204;2024-02-14T01:37:26;8.60;;;4.97;;
11663;SDS011;72375;59.302;18.204;2024-02-14T01:40:12;7.20;;;4.87;;
11663;SDS011;72375;59.302;18.204;2024-02-14T01:42:58;5.17;;;4.20;;
11663;SDS011;72375;59.302;18.204;2024-02-14T01:45:44;6.13;;;4.47;;
11663;SDS011;72375;59.302;18.204;2024-02-14T01:48:31;5.77;;;4.47;;
11663;SDS011;72375;59.302;18.204;2024-02-14T01:51:18;6.93;;;4.90;;
11663;SDS011;72375;59.302;18.204;2024-02-14T01:54:08;7.03;;;4.43;;
11663;SDS011;72375;59.302;18.204;2024-02-14T01:56:55;7.57;;;5.17;;
11663;SDS011;72375;59.302;18.204;2024-02-14T01:59:42;6.73;;;4.43;;
11663;SDS011;72375;59.302;18.204;2024-02-14T02:02:28;7.87;;;5.00;;
11663;SDS011;72375;59.302;18.204;2024-02-14T02:05:15;6.57;;;4.57;;
11663;SDS011;72375;59.302;18.204;2024-02-14T02:08:01;7.40;;;4.93;;
11663;SDS011;72375;59.302;18.204;2024-02-14T02:10:47;7.70;;;5.30;;
11663;SDS011;72375;59.302;18.204;2024-02-14T02:13:33;7.17;;;5.03;;
11663;SDS011;72375;59.302;18.204;2024-02-14T02:16:19;7.37;;;5.27;;
11663;SDS011;72375;59.302;18.204;2024-02-14T02:19:05;5.97;;;4.83;;
11663;SDS011;72375;59.302;18.204;2024-02-14T02:21:54;6.87;;;5.03;;
11663;SDS011;72375;59.302;18.204;2024-02-14T02:24:41;6.27;;;4.47;;
11663;SDS011;72375;59.302;18.204;2024-02-14T02:27:26;5.87;;;4.40;;
11663;SDS011;72375;59.302;18.204;2024-02-14T02:30:12;6.40;;;4.67;;
11663;SDS011;72375;59.302;18.204;2024-02-14T02:32:58;7.13;;;3.97;;
11663;SDS011;72375;59.302;18.204;2024-02-14T02:35:44;6.47;;;4.10;;
11663;SDS011;72375;59.302;18.204;2024-02-14T02:38:29;6.33;;;4.33;;
11663;SDS011;72375;59.302;18.204;2024-02-14T02:41:16;4.90;;;4.10;;
11663;SDS011;72375;59.302;18.204;2024-02-14T02:44:02;4.90;;;3.70;;
11663;SDS011;72375;59.302;18.204;2024-02-14T02:46:50;4.73;;;3.53;;
11663;SDS011;72375;59.302;18.204;2024-02-14T02:49:35;6.07;;;4.33;;
11663;SDS011;72375;59.302;18.204;2024-02-14T02:52:22;5.97;;;4.20;;
11663;SDS011;72375;59.302;18.204;2024-02-14T02:55:08;5.97;;;3.97;;
11663;SDS011;72375;59.302;18.204;2024-02-14T02:57:55;6.50;;;4.40;;
11663;SDS011;72375;59.302;18.204;2024-02-14T03:00:42;5.67;;;4.23;;
11663;SDS011;72375;59.302;18.204;2024-02-14T03:03:28;6.40;;;4.50;;
11663;SDS011;72375;59.302;18.204;2024-02-14T03:06:16;5.73;;;4.23;;
11663;SDS011;72375;59.302;18.204;2024-02-14T03:09:02;5.43;;;3.87;;
11663;SDS011;72375;59.302;18.204;2024-02-14T03:11:49;6.20;;;3.97;;
11663;SDS011;72375;59.302;18.204;2024-02-14T03:14:36;5.53;;;3.93;;
11663;SDS011;72375;59.302;18.204;2024-02-14T03:17:23;6.23;;;4.37;;
11663;SDS011;72375;59.302;18.204;2024-02-14T03:20:09;5.60;;;4.07;;
11663;SDS011;72375;59.302;18.204;2024-02-14T03:22:56;6.30;;;4.20;;
11663;SDS011;72375;59.302;18.204;2024-02-14T03:25:42;6.07;;;4.00;;
11663;SDS011;72375;59.302;18.204;2024-02-14T03:28:27;6.73;;;4.93;;
11663;SDS011;72375;59.302;18.204;2024-02-14T03:31:14;6.03;;;4.57;;
11663;SDS011;72375;59.302;18.204;2024-02-14T03:34:00;7.47;;;5.20;;
11663;SDS011;72375;59.302;18.204;2024-02-14T03:36:46;6.37;;;4.50;;
11663;SDS011;72375;59.302;18.204;2024-02-14T03:39:31;8.70;;;5.03;;
11663;SDS011;72375;59.302;18.204;2024-02-14T03:42:18;7.17;;;4.70;;
11663;SDS011;72375;59.302;18.204;2024-02-14T03:45:04;7.07;;;4.77;;
11663;SDS011;72375;59.302;18.204;2024-02-14T03:47:52;6.40;;;4.40;;
11663;SDS011;72375;59.302;18.204;2024-02-14T03:50:38;6.80;;;4.50;;
11663;SDS011;72375;59.302;18.204;2024-02-14T03:53:24;7.53;;;4.73;;
11663;SDS011;72375;59.302;18.204;2024-02-14T03:56:09;6.40;;;4.40;;
11663;SDS011;72375;59.302;18.204;2024-02-14T03:58:56;6.17;;;4.40;;
11663;SDS011;72375;59.302;18.204;2024-02-14T04:01:43;8.33;;;4.83;;
11663;SDS011;72375;59.302;18.204;2024-02-14T04:04:31;6.60;;;4.70;;
11663;SDS011;72375;59.302;18.204;2024-02-14T04:07:17;6.43;;;4.63;;
11663;SDS011;72375;59.302;18.204;2024-02-14T04:10:03;5.63;;;4.00;;
11663;SDS011;72375;59.302;18.204;2024-02-14T04:12:50;6.07;;;4.07;;
11663;SDS011;72375;59.302;18.204;2024-02-14T04:15:36;5.97;;;4.33;;
11663;SDS011;72375;59.302;18.204;2024-02-14T04:18:21;4.80;;;3.97;;
11663;SDS011;72375;59.302;18.204;2024-02-14T04:21:08;4.67;;;3.70;;
11663;SDS011;72375;59.302;18.204;2024-02-14T04:23:54;6.50;;;4.17;;
11663;SDS011;72375;59.302;18.204;2024-02-14T04:26:39;5.97;;;4.27;;
11663;SDS011;72375;59.302;18.204;2024-02-14T04:29:25;5.73;;;3.90;;
11663;SDS011;72375;59.302;18.204;2024-02-14T04:32:12;5.50;;;4.50;;
11663;SDS011;72375;59.302;18.204;2024-02-14T04:34:58;6.10;;;3.90;;
11663;SDS011;72375;59.302;18.204;2024-02-14T04:37:45;6.13;;;4.10;;
11663;SDS011;72375;59.302;18.204;2024-02-14T04:40:32;6.27;;;4.27;;
11663;SDS011;72375;59.302;18.204;2024-02-14T04:43:18;7.00;;;4.70;;
11663;SDS011;72375;59.302;18.204;2024-02-14T04:46:04;6.80;;;4.63;;
11663;SDS011;72375;59.302;18.204;2024-02-14T04:48:50;8.17;;;4.90;;
11663;SDS011;72375;59.302;18.204;2024-02-14T04:51:36;8.30;;;4.87;;
11663;SDS011;72375;59.302;18.204;2024-02-14T04:54:24;8.30;;;4.63;;
11663;SDS011;72375;59.302;18.204;2024-02-14T04:57:10;6.57;;;4.43;;
11663;SDS011;72375;59.302;18.204;2024-02-14T04:59:56;6.23;;;4.60;;
11663;SDS011;72375;59.302;18.204;2024-02-14T05:02:42;5.10;;;3.87;;
11663;SDS011;72375;59.302;18.204;2024-02-14T05:05:28;7.03;;;4.90;;
11663;SDS011;72375;59.302;18.204;2024-02-14T05:08:13;6.23;;;4.40;;
11663;SDS011;72375;59.302;18.204;2024-02-14T05:11:00;5.20;;;4.00;;
11663;SDS011;72375;59.302;18.204;2024-02-14T05:13:47;6.30;;;4.40;;
11663;SDS011;72375;59.302;18.204;2024-02-14T05:16:33;6.33;;;4.37;;
11663;SDS011;72375;59.302;18.204;2024-02-14T05:19:19;7.37;;;4.47;;
11663;SDS011;72375;59.302;18.204;2024-02-14T05:22:05;8.60;;;5.33;;
11663;SDS011;72375;59.302;18.204;2024-02-14T05:24:51;7.50;;;5.03;;
11663;SDS011;72375;59.302;18.204;2024-02-14T05:27:38;9.23;;;4.93;;
11663;SDS011;72375;59.302;18.204;2024-02-14T05:30:24;7.80;;;4.77;;
11663;SDS011;72375;59.302;18.204;2024-02-14T05:33:11;6.83;;;4.23;;
11663;SDS011;72375;59.302;18.204;2024-02-14T05:35:56;7.03;;;4.77;;
11663;SDS011;72375;59.302;18.204;2024-02-14T05:38:42;6.10;;;4.33;;
11663;SDS011;72375;59.302;18.204;2024-02-14T05:41:28;6.60;;;4.70;;
11663;SDS011;72375;59.302;18.204;2024-02-14T05:44:15;9.37;;;5.43;;
11663;SDS011;72375;59.302;18.204;2024-02-14T05:47:01;7.37;;;5.30;;
11663;SDS011;72375;59.302;18.204;2024-02-14T05:49:46;7.63;;;4.97;;
11663;SDS011;72375;59.302;18.204;2024-02-14T05:52:32;7.23;;;4.80;;
11663;SDS011;72375;59.302;18.204;2024-02-14T05:55:19;7.13;;;4.60;;
11663;SDS011;72375;59.302;18.204;2024-02-14T05:58:05;8.67;;;5.40;;
11663;SDS011;72375;59.302;18.204;2024-02-14T06:00:52;7.20;;;5.17;;
11663;SDS011;72375;59.302;18.204;2024-02-14T06:03:37;9.27;;;5.43;;
11663;SDS011;72375;59.302;18.204;2024-02-14T06:06:23;9.67;;;5.47;;
11663;SDS011;72375;59.302;18.204;2024-02-14T06:09:09;10.07;;;5.20;;
11663;SDS011;72375;59.302;18.204;2024-02-14T06:11:55;7.90;;;5.53;;
11663;SDS011;72375;59.302;18.204;2024-02-14T06:14:40;8.97;;;5.90;;
11663;SDS011;72375;59.302;18.204;2024-02-14T06:17:27;9.37;;;6.10;;
11663;SDS011;72375;59.302;18.204;2024-02-14T06:20:13;9.60;;;6.10;;
11663;SDS011;72375;59.302;18.204;2024-02-14T06:22:59;11.33;;;6.50;;
11663;SDS011;72375;59.302;18.204;2024-02-14T06:25:45;9.33;;;5.83;;
11663;SDS011;72375;59.302;18.204;2024-02-14T06:28:31;9.57;;;6.30;;
11663;SDS011;72375;59.302;18.204;2024-02-14T06:31:16;11.13;;;6.67;;
11663;SDS011;72375;59.302;18.204;2024-02-14T06:34:03;12.27;;;6.23;;
11663;SDS011;72375;59.302;18.204;2024-02-14T06:36:50;11.53;;;7.37;;
11663;SDS011;72375;59.302;18.204;2024-02-14T06:39:36;13.13;;;6.67;;
11663;SDS011;72375;59.302;18.204;2024-02-14T06:42:22;12.17;;;6.53;;
11663;SDS011;72375;59.302;18.204;2024-02-14T06:45:08;12.63;;;6.67;;
11663;SDS011;72375;59.302;18.204;2024-02-14T06:47:54;12.07;;;6.77;;
11663;SDS011;72375;59.302;18.204;2024-02-14T06:50:41;11.97;;;6.67;;
11663;SDS011;72375;59.302;18.204;2024-02-14T06:53:27;13.30;;;6.60;;
11663;SDS011;72375;59.302;18.204;2024-02-14T06:56:12;13.87;;;6.87;;
11663;SDS011;72375;59.302;18.204;2024-02-14T06:58:58;12.43;;;7.43;;
11663;SDS011;72375;59.302;18.204;2024-02-14T07:01:44;14.07;;;7.53;;
11663;SDS011;72375;59.302;18.204;2024-02-14T07:04:30;12.07;;;6.70;;
11663;SDS011;72375;59.302;18.204;2024-02-14T07:07:17;12.33;;;6.90;;
11663;SDS011;72375;59.302;18.204;2024-02-14T07:10:03;15.97;;;7.30;;
11663;SDS011;72375;59.302;18.204;2024-02-14T07:12:50;11.23;;;6.23;;
11663;SDS011;72375;59.302;18.204;2024-02-14T07:15:35;13.60;;;6.97;;
11663;SDS011;72375;59.302;18.204;2024-02-14T07:18:21;13.50;;;7.03;;
11663;SDS011;72375;59.302;18.204;2024-02-14T07:21:07;13.37;;;8.00;;
11663;SDS011;72375;59.302;18.204;2024-02-14T07:23:54;11.10;;;6.17;;
11663;SDS011;72375;59.302;18.204;2024-02-14T07:26:39;15.77;;;7.77;;
11663;SDS011;72375;59.302;18.204;2024-02-14T07:29:27;13.03;;;8.03;;
11663;SDS011;72375;59.302;18.204;2024-02-14T07:32:13;15.13;;;7.90;;
11663;SDS011;72375;59.302;18.204;2024-02-14T07:34:58;14.07;;;7.53;;
11663;SDS011;72375;59.302;18.204;2024-02-14T07:37:44;14.30;;;7.57;;
11663;SDS011;72375;59.302;18.204;2024-02-14T07:40:32;16.37;;;8.07;;
11663;SDS011;72375;59.302;18.204;2024-02-14T07:43:18;16.43;;;7.70;;
11663;SDS011;72375;59.302;18.204;2024-02-14T07:46:03;15.50;;;7.50;;
11663;SDS011;72375;59.302;18.204;2024-02-14T07:48:51;14.47;;;7.73;;
11663;SDS011;72375;59.302;18.204;2024-02-14T07:51:36;14.03;;;7.83;;
11663;SDS011;72375;59.302;18.204;2024-02-14T07:54:23;12.43;;;7.57;;
11663;SDS011;72375;59.302;18.204;2024-02-14T07:57:10;15.70;;;8.93;;
11663;SDS011;72375;59.302;18.204;2024-02-14T07:59:55;13.93;;;7.57;;
11663;SDS011;72375;59.302;18.204;2024-02-14T08:02:41;15.97;;;7.77;;
11663;SDS011;72375;59.302;18.204;2024-02-14T08:05:27;15.77;;;8.30;;
11663;SDS011;72375;59.302;18.204;2024-02-14T08:08:13;15.33;;;7.97;;
11663;SDS011;72375;59.302;18.204;2024-02-14T08:10:58;16.43;;;8.50;;
11663;SDS011;72375;59.302;18.204;2024-02-14T08:13:45;16.83;;;7.73;;
11663;SDS011;72375;59.302;18.204;2024-02-14T08:16:31;18.60;;;8.97;;
11663;SDS011;72375;59.302;18.204;2024-02-14T08:19:16;17.23;;;8.60;;
11663;SDS011;72375;59.302;18.204;2024-02-14T08:22:02;13.73;;;7.80;;
11663;SDS011;72375;59.302;18.204;2024-02-14T08:24:49;15.50;;;8.30;;
11663;SDS011;72375;59.302;18.204;2024-02-14T08:27:35;17.03;;;8.93;;
11663;SDS011;72375;59.302;18.204;2024-02-14T08:30:22;17.00;;;8.50;;
11663;SDS011;72375;59.302;18.204;2024-02-14T08:33:08;17.57;;;9.03;;
11663;SDS011;72375;59.302;18.204;2024-02-14T08:35:54;13.97;;;7.90;;
11663;SDS011;72375;59.302;18.204;2024-02-14T08:38:41;15.80;;;8.67;;
11663;SDS011;72375;59.302;18.204;2024-02-14T08:41:26;15.70;;;8.57;;
11663;SDS011;72375;59.302;18.204;2024-02-14T08:44:12;14.83;;;8.07;;
11663;SDS011;72375;59.302;18.204;2024-02-14T08:47:00;20.67;;;9.47;;
11663;SDS011;72375;59.302;18.204;2024-02-14T08:49:45;17.67;;;9.43;;
11663;SDS011;72375;59.302;18.204;2024-02-14T08:52:31;17.10;;;8.80;;
11663;SDS011;72375;59.302;18.204;2024-02-14T08:55:17;16.17;;;8.97;;
11663;SDS011;72375;59.302;18.204;2024-02-14T08:58:02;14.63;;;8.23;;
11663;SDS011;72375;59.302;18.204;2024-02-14T09:00:49;15.83;;;8.30;;
11663;SDS011;72375;59.302;18.204;2024-02-14T09:03:37;15.13;;;8.47;;
11663;SDS011;72375;59.302;18.204;2024-02-14T09:06:23;18.43;;;9.50;;
11663;SDS011;72375;59.302;18.204;2024-02-14T09:09:09;20.23;;;9.67;;
11663;SDS011;72375;59.302;18.204;2024-02-14T09:11:55;17.40;;;9.17;;
11663;SDS011;72375;59.302;18.204;2024-02-14T09:14:41;16.53;;;9.10;;
11663;SDS011;72375;59.302;18.204;2024-02-14T09:17:27;17.50;;;10.03;;
11663;SDS011;72375;59.302;18.204;2024-02-14T09:20:14;18.77;;;9.43;;
11663;SDS011;72375;59.302;18.204;2024-02-14T09:23:00;15.40;;;8.10;;
11663;SDS011;72375;59.302;18.204;2024-02-14T09:25:45;16.30;;;9.03;;
11663;SDS011;72375;59.302;18.204;2024-02-14T09:28:32;16.20;;;8.30;;
11663;SDS011;72375;59.302;18.204;2024-02-14T09:31:18;14.87;;;8.77;;
11663;SDS011;72375;59.302;18.204;2024-02-14T09:34:04;15.17;;;8.57;;
11663;SDS011;72375;59.302;18.204;2024-02-14T09:36:52;13.20;;;8.07;;
11663;SDS011;72375;59.302;18.204;2024-02-14T09:39:40;16.03;;;8.87;;
11663;SDS011;72375;59.302;18.204;2024-02-14T09:42:28;15.77;;;8.13;;
11663;SDS011;72375;59.302;18.204;2024-02-14T09:45:24;15.13;;;8.13;;
11663;SDS011;72375;59.302;18.204;2024-02-14T09:48:10;13.57;;;8.33;;
11663;SDS011;72375;59.302;18.204;2024-02-14T09:50:59;17.20;;;8.13;;
11663;SDS011;72375;59.302;18.204;2024-02-14T09:53:47;13.67;;;7.50;;
11663;SDS011;72375;59.302;18.204;2024-02-14T09:56:34;16.83;;;8.93;;
11663;SDS011;72375;59.302;18.204;2024-02-14T09:59:20;15.50;;;8.50;;
11663;SDS011;72375;59.302;18.204;2024-02-14T10:02:07;16.20;;;8.50;;
11663;SDS011;72375;59.302;18.204;2024-02-14T10:04:54;16.47;;;8.27;;
11663;SDS011;72375;59.302;18.204;2024-02-14T10:07:40;15.07;;;8.03;;
11663;SDS011;72375;59.302;18.204;2024-02-14T10:10:27;14.90;;;8.87;;
11663;SDS011;72375;59.302;18.204;2024-02-14T10:13:13;16.47;;;8.17;;
11663;SDS011;72375;59.302;18.204;2024-02-14T10:16:01;17.43;;;7.67;;
11663;SDS011;72375;59.302;18.204;2024-02-14T10:18:46;11.90;;;7.07;;
11663;SDS011;72375;59.302;18.204;2024-02-14T10:21:33;14.20;;;7.27;;
11663;SDS011;72375;59.302;18.204;2024-02-14T10:24:19;14.53;;;7.83;;
11663;SDS011;72375;59.302;18.204;2024-02-14T10:27:06;15.03;;;7.83;;
11663;SDS011;72375;59.302;18.204;2024-02-14T10:29:55;17.17;;;7.87;;
11663;SDS011;72375;59.302;18.204;2024-02-14T10:32:41;13.93;;;7.37;;
11663;SDS011;72375;59.302;18.204;2024-02-14T10:35:31;13.50;;;7.40;;
11663;SDS011;72375;59.302;18.204;2024-02-14T10:38:17;14.33;;;7.30;;
11663;SDS011;72375;59.302;18.204;2024-02-14T10:41:04;12.17;;;6.80;;
11663;SDS011;72375;59.302;18.204;2024-02-14T10:43:52;13.67;;;7.27;;
11663;SDS011;72375;59.302;18.204;2024-02-14T10:46:38;11.80;;;7.67;;
11663;SDS011;72375;59.302;18.204;2024-02-14T10:49:26;15.23;;;7.10;;
11663;SDS011;72375;59.302;18.204;2024-02-14T10:52:15;16.53;;;7.57;;
11663;SDS011;72375;59.302;18.204;2024-02-14T10:55:02;12.63;;;7.33;;
11663;SDS011;72375;59.302;18.204;2024-02-14T10:57:49;23.67;;;8.03;;
11663;SDS011;72375;59.302;18.204;2024-02-14T11:00:37;13.23;;;7.00;;
11663;SDS011;72375;59.302;18.204;2024-02-14T11:03:23;13.33;;;7.00;;
11663;SDS011;72375;59.302;18.204;2024-02-14T11:06:14;12.87;;;6.53;;
11663;SDS011;72375;59.302;18.204;2024-02-14T11:09:01;13.23;;;6.63;;
11663;SDS011;72375;59.302;18.204;2024-02-14T11:11:58;14.83;;;7.77;;
11663;SDS011;72375;59.302;18.204;2024-02-14T11:14:46;11.37;;;7.07;;
11663;SDS011;72375;59.302;18.204;2024-02-14T11:17:37;10.60;;;6.77;;
11663;SDS011;72375;59.302;18.204;2024-02-14T11:20:32;12.13;;;7.13;;
11663;SDS011;72375;59.302;18.204;2024-02-14T11:23:21;14.23;;;7.27;;
11663;SDS011;72375;59.302;18.204;2024-02-14T11:26:07;15.17;;;7.17;;
11663;SDS011;72375;59.302;18.204;2024-02-14T11:29:00;13.23;;;6.87;;
11663;SDS011;72375;59.302;18.204;2024-02-14T11:31:46;15.03;;;7.00;;
11663;SDS011;72375;59.302;18.204;2024-02-14T11:34:33;12.40;;;6.70;;
11663;SDS011;72375;59.302;18.204;2024-02-14T11:37:19;11.87;;;6.97;;
11663;SDS011;72375;59.302;18.204;2024-02-14T11:40:08;12.07;;;7.03;;
11663;SDS011;72375;59.302;18.204;2024-02-14T11:42:54;12.63;;;6.07;;
11663;SDS011;72375;59.302;18.204;2024-02-14T11:45:40;11.10;;;6.43;;
11663;SDS011;72375;59.302;18.204;2024-02-14T11:48:26;9.87;;;5.97;;
11663;SDS011;72375;59.302;18.204;2024-02-14T11:51:15;13.40;;;6.07;;
11663;SDS011;72375;59.302;18.204;2024-02-14T11:54:00;12.47;;;6.90;;
11663;SDS011;72375;59.302;18.204;2024-02-14T11:56:49;12.33;;;6.00;;
11663;SDS011;72375;59.302;18.204;2024-02-14T11:59:34;10.80;;;5.70;;
11663;SDS011;72375;59.302;18.204;2024-02-14T12:02:20;12.53;;;6.07;;
11663;SDS011;72375;59.302;18.204;2024-02-14T12:05:07;11.60;;;6.33;;
11663;SDS011;72375;59.302;18.204;2024-02-14T12:07:54;9.80;;;6.10;;
11663;SDS011;72375;59.302;18.204;2024-02-14T12:10:41;10.07;;;6.20;;
11663;SDS011;72375;59.302;18.204;2024-02-14T12:13:30;10.93;;;5.53;;
11663;SDS011;72375;59.302;18.204;2024-02-14T12:16:19;10.00;;;4.70;;
11663;SDS011;72375;59.302;18.204;2024-02-14T12:19:06;8.53;;;4.70;;
11663;SDS011;72375;59.302;18.204;2024-02-14T12:21:53;6.30;;;4.10;;
11663;SDS011;72375;59.302;18.204;2024-02-14T12:24:44;9.20;;;4.67;;
11663;SDS011;72375;59.302;18.204;2024-02-14T12:27:31;10.53;;;5.20;;
11663;SDS011;72375;59.302;18.204;2024-02-14T12:30:17;9.83;;;4.73;;
11663;SDS011;72375;59.302;18.204;2024-02-14T12:33:04;8.07;;;4.60;;
11663;SDS011;72375;59.302;18.204;2024-02-14T12:35:53;7.73;;;3.87;;
11663;SDS011;72375;59.302;18.204;2024-02-14T12:38:40;8.77;;;3.83;;
11663;SDS011;72375;59.302;18.204;2024-02-14T12:41:28;9.07;;;4.27;;
11663;SDS011;72375;59.302;18.204;2024-02-14T12:44:14;8.13;;;4.33;;
11663;SDS011;72375;59.302;18.204;2024-02-14T12:47:00;6.60;;;3.60;;
11663;SDS011;72375;59.302;18.204;2024-02-14T12:49:45;6.23;;;3.87;;
11663;SDS011;72375;59.302;18.204;2024-02-14T12:52:32;5.63;;;3.23;;
11663;SDS011;72375;59.302;18.204;2024-02-14T12:55:18;8.97;;;3.30;;
11663;SDS011;72375;59.302;18.204;2024-02-14T12:58:05;7.67;;;3.63;;
11663;SDS011;72375;59.302;18.204;2024-02-14T13:00:51;5.53;;;3.93;;
11663;SDS011;72375;59.302;18.204;2024-02-14T13:03:37;9.53;;;3.67;;
11663;SDS011;72375;59.302;18.204;2024-02-14T13:06:22;7.40;;;3.23;;
11663;SDS011;72375;59.302;18.204;2024-02-14T13:09:08;9.53;;;3.87;;
11663;SDS011;72375;59.302;18.204;2024-02-14T13:11:55;6.07;;;3.30;;
11663;SDS011;72375;59.302;18.204;2024-02-14T13:14:42;11.80;;;3.53;;
11663;SDS011;72375;59.302;18.204;2024-02-14T13:17:28;6.53;;;3.53;;
11663;SDS011;72375;59.302;18.204;2024-02-14T13:20:13;9.10;;;3.83;;
11663;SDS011;72375;59.302;18.204;2024-02-14T13:22:59;7.77;;;3.40;;
11663;SDS011;72375;59.302;18.204;2024-02-14T13:25:45;6.50;;;3.40;;
11663;SDS011;72375;59.302;18.204;2024-02-14T13:28:31;7.70;;;3.73;;
11663;SDS011;72375;59.302;18.204;2024-02-14T13:31:19;7.13;;;3.10;;
11663;SDS011;72375;59.302;18.204;2024-02-14T13:34:05;7.40;;;3.13;;
11663;SDS011;72375;59.302;18.204;2024-02-14T13:36:50;8.27;;;3.50;;
11663;SDS011;72375;59.302;18.204;2024-02-14T13:39:36;8.97;;;3.80;;
11663;SDS011;72375;59.302;18.204;2024-02-14T13:42:22;8.33;;;3.10;;
11663;SDS011;72375;59.302;18.204;2024-02-14T13:45:08;4.83;;;2.77;;
11663;SDS011;72375;59.302;18.204;2024-02-14T13:48:02;8.20;;;3.20;;
11663;SDS011;72375;59.302;18.204;2024-02-14T13:50:48;9.63;;;2.83;;
11663;SDS011;72375;59.302;18.204;2024-02-14T13:53:35;4.13;;;2.40;;
11663;SDS011;72375;59.302;18.204;2024-02-14T13:56:21;8.30;;;2.67;;
11663;SDS011;72375;59.302;18.204;2024-02-14T13:59:07;7.93;;;2.27;;
11663;SDS011;72375;59.302;18.204;2024-02-14T14:01:56;6.33;;;2.37;;
11663;SDS011;72375;59.302;18.204;2024-02-14T14:04:43;6.43;;;2.53;;
11663;SDS011;72375;59.302;18.204;2024-02-14T14:07:29;4.83;;;2.23;;
11663;SDS011;72375;59.302;18.204;2024-02-14T14:10:14;7.73;;;2.63;;
11663;SDS011;72375;59.302;18.204;2024-02-14T14:13:00;7.80;;;2.77;;
11663;SDS011;72375;59.302;18.204;2024-02-14T14:15:47;4.33;;;1.83;;
11663;SDS011;72375;59.302;18.204;2024-02-14T14:18:32;7.33;;;2.87;;
11663;SDS011;72375;59.302;18.204;2024-02-14T14:21:19;6.47;;;2.53;;
11663;SDS011;72375;59.302;18.204;2024-02-14T14:24:05;4.37;;;1.93;;
11663;SDS011;72375;59.302;18.204;2024-02-14T14:26:51;7.10;;;2.43;;
11663;SDS011;72375;59.302;18.204;2024-02-14T14:29:36;5.97;;;2.80;;
11663;SDS011;72375;59.302;18.204;2024-02-14T14:32:22;5.53;;;2.13;;
11663;SDS011;72375;59.302;18.204;2024-02-14T14:35:07;3.43;;;1.73;;
11663;SDS011;72375;59.302;18.204;2024-02-14T14:37:55;5.60;;;1.73;;
11663;SDS011;72375;59.302;18.204;2024-02-14T14:40:40;3.43;;;1.80;;
11663;SDS011;72375;59.302;18.204;2024-02-14T14:43:26;3.53;;;2.00;;
11663;SDS011;72375;59.302;18.204;2024-02-14T14:46:12;7.27;;;1.83;;
11663;SDS011;72375;59.302;18.204;2024-02-14T14:48:58;3.03;;;1.47;;
11663;SDS011;72375;59.302;18.204;2024-02-14T14:51:43;4.33;;;1.43;;
11663;SDS011;72375;59.302;18.204;2024-02-14T14:54:30;5.00;;;2.20;;
11663;SDS011;72375;59.302;18.204;2024-02-14T14:57:16;3.97;;;1.70;;
11663;SDS011;72375;59.302;18.204;2024-02-14T15:00:02;9.67;;;1.67;;
11663;SDS011;72375;59.302;18.204;2024-02-14T15:02:48;6.40;;;1.83;;
11663;SDS011;72375;59.302;18.204;2024-02-14T15:05:35;5.20;;;1.80;;
11663;SDS011;72375;59.302;18.204;2024-02-14T15:08:21;4.30;;;1.90;;
11663;SDS011;72375;59.302;18.204;2024-02-14T15:11:10;4.13;;;1.17;;
11663;SDS011;72375;59.302;18.204;2024-02-14T15:13:59;3.87;;;1.77;;
11663;SDS011;72375;59.302;18.204;2024-02-14T15:16:44;3.27;;;1.33;;
11663;SDS011;72375;59.302;18.204;2024-02-14T15:19:30;3.63;;;1.60;;
11663;SDS011;72375;59.302;18.204;2024-02-14T15:22:16;6.63;;;2.00;;
11663;SDS011;72375;59.302;18.204;2024-02-14T15:25:01;3.73;;;1.50;;
11663;SDS011;72375;59.302;18.204;2024-02-14T15:27:48;6.37;;;1.70;;
11663;SDS011;72375;59.302;18.204;2024-02-14T15:30:39;2.90;;;1.13;;
11663;SDS011;72375;59.302;18.204;2024-02-14T15:33:47;3.93;;;1.60;;
11663;SDS011;72375;59.302;18.204;2024-02-14T15:36:32;5.17;;;1.60;;
11663;SDS011;72375;59.302;18.204;2024-02-14T15:39:18;4.53;;;1.60;;
11663;SDS011;72375;59.302;18.204;2024-02-14T15:42:04;6.77;;;1.63;;
11663;SDS011;72375;59.302;18.204;2024-02-14T15:44:51;4.30;;;1.20;;
11663;SDS011;72375;59.302;18.204;2024-02-14T15:47:37;3.57;;;1.30;;
11663;SDS011;72375;59.302;18.204;2024-02-14T15:50:23;3.50;;;1.37;;
11663;SDS011;72375;59.302;18.204;2024-02-14T15:53:09;7.40;;;2.50;;
11663;SDS011;72375;59.302;18.204;2024-02-14T15:55:55;2.40;;;1.23;;
11663;SDS011;72375;59.302;18.204;2024-02-14T15:58:41;5.33;;;1.77;;
11663;SDS011;72375;59.302;18.204;2024-02-14T16:01:29;5.30;;;1.77;;
11663;SDS011;72375;59.302;18.204;2024-02-14T16:04:14;2.53;;;1.10;;
11663;SDS011;72375;59.302;18.204;2024-02-14T16:07:00;5.97;;;1.57;;
11663;SDS011;72375;59.302;18.204;2024-02-14T16:09:46;3.13;;;1.70;;
11663;SDS011;72375;59.302;18.204;2024-02-14T16:12:31;6.23;;;1.73;;
11663;SDS011;72375;59.302;18.204;2024-02-14T16:15:18;4.03;;;1.80;;
11663;SDS011;72375;59.302;18.204;2024-02-14T16:18:05;4.77;;;1.67;;
11663;SDS011;72375;59.302;18.204;2024-02-14T16:20:51;4.40;;;1.40;;
11663;SDS011;72375;59.302;18.204;2024-02-14T16:23:36;5.13;;;1.43;;